createdAt,value
2017-02-23T00:00:19.124Z,989.47
2017-02-23T00:01:19.154Z,989.39
2017-02-23T00:02:19.182Z,989.42
2017-02-23T00:03:19.207Z,989.42
2017-02-23T00:04:19.236Z,989.39
2017-02-23T00:05:19.263Z,989.35
2017-02-23T00:06:19.289Z,989.38
2017-02-23T00:07:19.317Z,989.43
2017-02-23T00:08:19.345Z,989.42
2017-02-23T00:09:19.370Z,989.39
2017-02-23T00:10:19.399Z,989.39
2017-02-23T00:11:19.421Z,989.4
2017-02-23T00:12:19.453Z,989.41
2017-02-23T00:13:19.484Z,989.46
2017-02-23T00:14:19.510Z,989.47
2017-02-23T00:15:19.535Z,989.46
2017-02-23T00:16:19.815Z,989.4
2017-02-23T00:17:19.593Z,989.47
2017-02-23T00:18:19.612Z,989.39
2017-02-23T00:19:19.646Z,989.4
2017-02-23T00:20:19.674Z,989.41
2017-02-23T00:21:19.950Z,989.43
2017-02-23T00:22:19.727Z,989.44
2017-02-23T00:23:19.756Z,989.42
2017-02-23T00:24:19.781Z,989.47
2017-02-23T00:25:19.809Z,989.45
2017-02-23T00:26:19.830Z,989.41
2017-02-23T00:27:19.863Z,989.39
2017-02-23T00:28:19.891Z,989.39
2017-02-23T00:29:19.917Z,989.46
2017-02-23T00:30:19.945Z,989.35
2017-02-23T00:31:19.970Z,989.42
2017-02-23T00:32:20.002Z,989.37
2017-02-23T00:33:20.027Z,989.3
2017-02-23T00:34:20.055Z,989.3
2017-02-23T00:35:20.080Z,989.3
2017-02-23T00:36:20.109Z,989.28
2017-02-23T00:37:20.138Z,989.3
2017-02-23T00:38:20.162Z,989.32
2017-02-23T00:39:20.190Z,989.24
2017-02-23T00:40:20.219Z,989.25
2017-02-23T00:41:20.240Z,989.21
2017-02-23T00:42:20.274Z,989.23
2017-02-23T00:43:20.306Z,989.17
2017-02-23T00:44:20.326Z,989.13
2017-02-23T00:45:20.355Z,989.19
2017-02-23T00:46:20.383Z,989.18
2017-02-23T00:47:20.411Z,989.19
2017-02-23T00:48:20.437Z,989.16
2017-02-23T00:49:20.462Z,989.17
2017-02-23T00:50:20.490Z,989.09
2017-02-23T00:51:20.518Z,989.09
2017-02-23T00:52:20.547Z,989.11
2017-02-23T00:53:20.573Z,989.05
2017-02-23T00:54:20.601Z,989.07
2017-02-23T00:55:20.626Z,989.01
2017-02-23T00:56:20.650Z,989.09
2017-02-23T00:57:20.683Z,989.03
2017-02-23T00:58:20.715Z,989.02
2017-02-23T00:59:20.737Z,988.94
2017-02-23T01:00:20.765Z,989.11
2017-02-23T01:01:20.789Z,989.02
2017-02-23T01:02:20.818Z,988.94
2017-02-23T01:03:20.847Z,989.04
2017-02-23T01:04:20.871Z,989.05
2017-02-23T01:05:20.900Z,988.97
2017-02-23T01:06:20.925Z,988.99
2017-02-23T01:07:20.954Z,988.96
2017-02-23T01:08:20.982Z,988.97
2017-02-23T01:09:21.012Z,988.94
2017-02-23T01:10:21.034Z,988.93
2017-02-23T01:11:21.065Z,988.91
2017-02-23T01:12:21.089Z,988.95
2017-02-23T01:13:21.118Z,988.96
2017-02-23T01:14:21.146Z,988.87
2017-02-23T01:15:21.171Z,988.93
2017-02-23T01:16:21.199Z,988.82
2017-02-23T01:17:21.225Z,988.84
2017-02-23T01:18:21.253Z,988.87
2017-02-23T01:19:21.282Z,988.91
2017-02-23T01:20:21.307Z,988.82
2017-02-23T01:21:21.335Z,988.73
2017-02-23T01:22:21.363Z,988.75
2017-02-23T01:23:21.389Z,988.81
2017-02-23T01:24:21.417Z,988.77
2017-02-23T01:25:21.442Z,988.73
2017-02-23T01:26:21.471Z,988.76
2017-02-23T01:27:21.504Z,988.66
2017-02-23T01:28:21.524Z,988.66
2017-02-23T01:29:21.554Z,988.69
2017-02-23T01:30:21.577Z,988.64
2017-02-23T01:31:21.606Z,988.71
2017-02-23T01:32:21.631Z,988.6
2017-02-23T01:33:21.656Z,988.6
2017-02-23T01:34:21.689Z,988.57
2017-02-23T01:35:21.713Z,988.53
2017-02-23T01:36:21.743Z,988.44
2017-02-23T01:37:21.771Z,988.47
2017-02-23T01:38:21.804Z,988.41
2017-02-23T01:39:21.824Z,988.42
2017-02-23T01:40:21.853Z,988.35
2017-02-23T01:41:21.877Z,988.34
2017-02-23T01:42:21.907Z,988.43
2017-02-23T01:43:21.931Z,988.32
2017-02-23T01:44:21.960Z,988.33
2017-02-23T01:45:21.988Z,988.36
2017-02-23T01:46:22.013Z,988.37
2017-02-23T01:47:22.038Z,988.33
2017-02-23T01:48:22.072Z,988.33
2017-02-23T01:49:22.094Z,988.3
2017-02-23T01:50:22.125Z,988.23
2017-02-23T01:51:22.150Z,988.28
2017-02-23T01:52:22.178Z,988.3
2017-02-23T01:53:22.532Z,988.22
2017-02-23T01:54:22.232Z,988.24
2017-02-23T01:55:22.260Z,988.25
2017-02-23T01:56:22.284Z,988.27
2017-02-23T01:57:22.565Z,988.27
2017-02-23T01:58:22.343Z,988.29
2017-02-23T01:59:22.367Z,988.28
2017-02-23T02:00:22.396Z,988.3
2017-02-23T02:01:22.421Z,988.31
2017-02-23T02:02:22.702Z,988.3
2017-02-23T02:03:22.479Z,988.26
2017-02-23T02:04:22.503Z,988.32
2017-02-23T02:05:22.532Z,988.31
2017-02-23T02:06:22.559Z,988.35
2017-02-23T02:07:22.837Z,988.35
2017-02-23T02:08:22.606Z,988.33
2017-02-23T02:09:22.639Z,988.36
2017-02-23T02:10:22.668Z,988.32
2017-02-23T02:11:22.692Z,988.4
2017-02-23T02:12:22.973Z,988.33
2017-02-23T02:13:22.750Z,988.36
2017-02-23T02:14:22.775Z,988.3
2017-02-23T02:15:22.804Z,988.35
2017-02-23T02:16:22.828Z,988.28
2017-02-23T02:17:22.857Z,988.26
2017-02-23T02:18:22.882Z,988.24
2017-02-23T02:19:22.911Z,988.25
2017-02-23T02:20:22.940Z,988.22
2017-02-23T02:21:22.964Z,988.18
2017-02-23T02:22:22.993Z,988.13
2017-02-23T02:23:23.018Z,988.18
2017-02-23T02:24:23.047Z,988.16
2017-02-23T02:25:23.076Z,988.13
2017-02-23T02:26:23.101Z,988.16
2017-02-23T02:27:23.129Z,988.15
2017-02-23T02:28:23.158Z,988.08
2017-02-23T02:29:23.183Z,988.08
2017-02-23T02:30:23.212Z,988.05
2017-02-23T02:31:23.236Z,988.03
2017-02-23T02:32:23.259Z,988.03
2017-02-23T02:33:23.290Z,988
2017-02-23T02:34:23.319Z,988.02
2017-02-23T02:35:23.348Z,987.95
2017-02-23T02:36:23.377Z,987.98
2017-02-23T02:37:23.401Z,987.95
2017-02-23T02:38:23.430Z,987.92
2017-02-23T02:39:23.455Z,987.94
2017-02-23T02:40:23.483Z,987.95
2017-02-23T02:41:23.508Z,988.01
2017-02-23T02:42:23.536Z,988.01
2017-02-23T02:43:23.565Z,987.98
2017-02-23T02:44:23.590Z,988
2017-02-23T02:45:23.619Z,987.99
2017-02-23T02:46:23.644Z,987.95
2017-02-23T02:47:23.673Z,988.02
2017-02-23T02:48:23.693Z,987.94
2017-02-23T02:49:23.726Z,987.96
2017-02-23T02:50:23.755Z,987.97
2017-02-23T02:51:23.780Z,987.94
2017-02-23T02:52:23.808Z,987.9
2017-02-23T02:53:23.833Z,987.92
2017-02-23T02:54:23.858Z,987.95
2017-02-23T02:55:23.891Z,987.89
2017-02-23T02:56:23.916Z,987.92
2017-02-23T02:57:23.944Z,987.9
2017-02-23T02:58:23.963Z,987.89
2017-02-23T02:59:23.993Z,987.9
2017-02-23T03:00:24.023Z,987.93
2017-02-23T03:01:24.050Z,987.84
2017-02-23T03:02:24.080Z,987.83
2017-02-23T03:03:24.105Z,987.87
2017-02-23T03:04:24.134Z,987.94
2017-02-23T03:05:24.159Z,987.88
2017-02-23T03:06:24.188Z,987.92
2017-02-23T03:07:24.213Z,987.95
2017-02-23T03:08:24.240Z,987.91
2017-02-23T03:09:24.271Z,987.96
2017-02-23T03:10:24.295Z,987.92
2017-02-23T03:11:24.323Z,987.98
2017-02-23T03:12:24.348Z,988.05
2017-02-23T03:13:24.377Z,987.87
2017-02-23T03:14:24.402Z,987.92
2017-02-23T03:15:24.431Z,987.96
2017-02-23T03:16:24.460Z,987.83
2017-02-23T03:17:24.484Z,987.94
2017-02-23T03:18:24.513Z,987.85
2017-02-23T03:19:24.537Z,987.83
2017-02-23T03:20:24.567Z,987.92
2017-02-23T03:21:24.591Z,987.88
2017-02-23T03:22:24.620Z,987.93
2017-02-23T03:23:24.650Z,987.86
2017-02-23T03:24:24.673Z,987.9
2017-02-23T03:25:24.702Z,987.95
2017-02-23T03:26:24.727Z,987.85
2017-02-23T03:27:24.755Z,987.8
2017-02-23T03:28:24.784Z,987.85
2017-02-23T03:29:24.809Z,987.82
2017-02-23T03:30:24.838Z,987.82
2017-02-23T03:31:24.862Z,987.75
2017-02-23T03:32:24.908Z,987.67
2017-02-23T03:33:24.916Z,987.63
2017-02-23T03:34:24.945Z,987.64
2017-02-23T03:35:24.969Z,987.62
2017-02-23T03:36:24.998Z,987.62
2017-02-23T03:37:25.027Z,987.65
2017-02-23T03:38:25.047Z,987.62
2017-02-23T03:39:25.081Z,987.66
2017-02-23T03:40:25.103Z,987.51
2017-02-23T03:41:25.134Z,987.54
2017-02-23T03:42:25.163Z,987.51
2017-02-23T03:43:25.188Z,987.5
2017-02-23T03:44:25.214Z,987.5
2017-02-23T03:45:25.241Z,987.48
2017-02-23T03:46:25.269Z,987.45
2017-02-23T03:47:25.290Z,987.5
2017-02-23T03:48:25.325Z,987.51
2017-02-23T03:49:25.347Z,987.47
2017-02-23T03:50:25.376Z,987.48
2017-02-23T03:51:25.406Z,987.43
2017-02-23T03:52:25.430Z,987.4
2017-02-23T03:53:25.459Z,987.4
2017-02-23T03:54:25.484Z,987.42
2017-02-23T03:55:25.513Z,987.42
2017-02-23T03:56:25.534Z,987.41
2017-02-23T03:57:25.567Z,987.44
2017-02-23T03:58:25.592Z,987.41
2017-02-23T03:59:25.620Z,987.44
2017-02-23T04:00:25.649Z,987.39
2017-02-23T04:01:25.670Z,987.41
2017-02-23T04:02:25.703Z,987.31
2017-02-23T04:03:25.731Z,987.33
2017-02-23T04:04:25.758Z,987.27
2017-02-23T04:05:25.785Z,987.27
2017-02-23T04:06:25.810Z,987.32
2017-02-23T04:07:25.841Z,987.28
2017-02-23T04:08:25.863Z,987.26
2017-02-23T04:09:25.892Z,987.26
2017-02-23T04:10:25.922Z,987.26
2017-02-23T04:11:25.946Z,987.25
2017-02-23T04:12:25.971Z,987.23
2017-02-23T04:13:26.251Z,987.23
2017-02-23T04:14:26.024Z,987.16
2017-02-23T04:15:26.052Z,987.18
2017-02-23T04:16:26.082Z,987.18
2017-02-23T04:17:26.107Z,987.17
2017-02-23T04:18:26.387Z,987.11
2017-02-23T04:19:26.160Z,987.18
2017-02-23T04:20:26.189Z,987.06
2017-02-23T04:21:26.214Z,987.11
2017-02-23T04:22:26.243Z,987.14
2017-02-23T04:23:26.519Z,987.09
2017-02-23T04:24:26.296Z,987.14
2017-02-23T04:25:26.323Z,987.12
2017-02-23T04:26:26.349Z,987.03
2017-02-23T04:27:26.378Z,987.04
2017-02-23T04:28:26.655Z,987.04
2017-02-23T04:29:26.431Z,987.01
2017-02-23T04:30:26.457Z,986.99
2017-02-23T04:31:26.485Z,986.95
2017-02-23T04:32:26.506Z,986.99
2017-02-23T04:33:26.790Z,986.95
2017-02-23T04:34:26.564Z,986.93
2017-02-23T04:35:26.591Z,986.92
2017-02-23T04:36:26.622Z,986.94
2017-02-23T04:37:26.645Z,986.92
2017-02-23T04:38:26.927Z,986.87
2017-02-23T04:39:26.699Z,986.9
2017-02-23T04:40:26.728Z,986.89
2017-02-23T04:41:26.751Z,986.82
2017-02-23T04:42:26.782Z,986.88
2017-02-23T04:43:27.058Z,986.91
2017-02-23T04:44:26.835Z,986.78
2017-02-23T04:45:26.860Z,986.88
2017-02-23T04:46:26.888Z,986.87
2017-02-23T04:47:26.913Z,986.88
2017-02-23T04:48:26.941Z,986.86
2017-02-23T04:49:26.971Z,986.87
2017-02-23T04:50:26.995Z,986.82
2017-02-23T04:51:27.023Z,986.84
2017-02-23T04:52:27.049Z,986.81
2017-02-23T04:53:27.077Z,986.79
2017-02-23T04:54:27.103Z,986.83
2017-02-23T04:55:27.131Z,986.83
2017-02-23T04:56:27.155Z,986.75
2017-02-23T04:57:27.184Z,986.76
2017-02-23T04:58:27.209Z,986.71
2017-02-23T04:59:27.238Z,986.67
2017-02-23T05:00:27.262Z,986.71
2017-02-23T05:01:27.291Z,986.66
2017-02-23T05:02:27.320Z,986.7
2017-02-23T05:03:27.341Z,986.7
2017-02-23T05:04:27.374Z,986.68
2017-02-23T05:05:27.397Z,986.66
2017-02-23T05:06:27.427Z,986.61
2017-02-23T05:07:27.452Z,986.67
2017-02-23T05:08:27.481Z,986.6
2017-02-23T05:09:27.501Z,986.68
2017-02-23T05:10:27.534Z,986.64
2017-02-23T05:11:27.555Z,986.64
2017-02-23T05:12:27.586Z,986.63
2017-02-23T05:13:27.612Z,986.59
2017-02-23T05:14:27.641Z,986.54
2017-02-23T05:15:27.665Z,986.57
2017-02-23T05:16:27.694Z,986.59
2017-02-23T05:17:27.722Z,986.58
2017-02-23T05:18:27.747Z,986.59
2017-02-23T05:19:27.776Z,986.61
2017-02-23T05:20:27.801Z,986.56
2017-02-23T05:21:27.830Z,986.5
2017-02-23T05:22:27.855Z,986.52
2017-02-23T05:23:27.884Z,986.51
2017-02-23T05:24:27.908Z,986.53
2017-02-23T05:25:27.937Z,986.49
2017-02-23T05:26:27.961Z,986.5
2017-02-23T05:27:27.991Z,986.45
2017-02-23T05:28:28.019Z,986.54
2017-02-23T05:29:28.040Z,986.47
2017-02-23T05:30:28.068Z,986.47
2017-02-23T05:31:28.098Z,986.42
2017-02-23T05:32:28.126Z,986.41
2017-02-23T05:33:28.151Z,986.35
2017-02-23T05:34:28.179Z,986.35
2017-02-23T05:35:28.203Z,986.33
2017-02-23T05:36:28.232Z,986.37
2017-02-23T05:37:28.257Z,986.3
2017-02-23T05:38:28.286Z,986.23
2017-02-23T05:39:28.315Z,986.23
2017-02-23T05:40:28.340Z,986.17
2017-02-23T05:41:28.368Z,986.12
2017-02-23T05:42:28.393Z,986.12
2017-02-23T05:43:28.422Z,986.12
2017-02-23T05:44:28.447Z,986.12
2017-02-23T05:45:28.476Z,986.03
2017-02-23T05:46:28.505Z,986.06
2017-02-23T05:47:28.530Z,986.03
2017-02-23T05:48:28.554Z,986.02
2017-02-23T05:49:28.582Z,986.06
2017-02-23T05:50:28.612Z,986.05
2017-02-23T05:51:28.636Z,985.99
2017-02-23T05:52:28.666Z,985.99
2017-02-23T05:53:28.690Z,985.98
2017-02-23T05:54:28.719Z,985.91
2017-02-23T05:55:28.744Z,985.91
2017-02-23T05:56:28.772Z,985.97
2017-02-23T05:57:28.801Z,985.9
2017-02-23T05:58:28.826Z,985.86
2017-02-23T05:59:28.854Z,985.9
2017-02-23T06:00:28.875Z,985.91
2017-02-23T06:01:28.908Z,985.86
2017-02-23T06:02:28.933Z,985.86
2017-02-23T06:03:28.963Z,985.92
2017-02-23T06:04:28.990Z,985.86
2017-02-23T06:05:29.017Z,985.8
2017-02-23T06:06:29.043Z,985.83
2017-02-23T06:07:29.067Z,985.77
2017-02-23T06:08:29.098Z,985.78
2017-02-23T06:09:29.373Z,985.81
2017-02-23T06:10:29.151Z,985.8
2017-02-23T06:11:29.179Z,985.73
2017-02-23T06:12:29.205Z,985.78
2017-02-23T06:13:29.233Z,985.75
2017-02-23T06:14:29.509Z,985.75
2017-02-23T06:15:29.287Z,985.81
2017-02-23T06:16:29.315Z,985.82
2017-02-23T06:17:29.340Z,985.81
2017-02-23T06:18:29.371Z,985.81
2017-02-23T06:19:29.644Z,985.82
2017-02-23T06:20:29.421Z,985.74
2017-02-23T06:21:29.447Z,985.75
2017-02-23T06:22:29.476Z,985.75
2017-02-23T06:23:29.500Z,985.79
2017-02-23T06:24:29.781Z,985.69
2017-02-23T06:25:29.558Z,985.67
2017-02-23T06:26:29.583Z,985.74
2017-02-23T06:27:29.611Z,985.75
2017-02-23T06:28:29.636Z,985.74
2017-02-23T06:29:29.916Z,985.65
2017-02-23T06:30:29.693Z,985.69
2017-02-23T06:31:29.720Z,985.67
2017-02-23T06:32:29.747Z,985.69
2017-02-23T06:33:29.776Z,985.67
2017-02-23T06:34:30.052Z,985.64
2017-02-23T06:35:29.829Z,985.66
2017-02-23T06:36:29.855Z,985.62
2017-02-23T06:37:29.884Z,985.56
2017-02-23T06:38:29.915Z,985.58
2017-02-23T06:39:30.188Z,985.52
2017-02-23T06:40:29.966Z,985.54
2017-02-23T06:41:29.987Z,985.48
2017-02-23T06:42:30.019Z,985.44
2017-02-23T06:43:30.048Z,985.41
2017-02-23T06:44:30.073Z,985.43
2017-02-23T06:45:30.097Z,985.42
2017-02-23T06:46:30.126Z,985.4
2017-02-23T06:47:30.155Z,985.38
2017-02-23T06:48:30.183Z,985.36
2017-02-23T06:49:30.208Z,985.4
2017-02-23T06:50:30.237Z,985.37
2017-02-23T06:51:30.262Z,985.3
2017-02-23T06:52:30.291Z,985.43
2017-02-23T06:53:30.319Z,985.32
2017-02-23T06:54:30.343Z,985.23
2017-02-23T06:55:30.370Z,985.28
2017-02-23T06:56:30.397Z,985.27
2017-02-23T06:57:30.426Z,985.28
2017-02-23T06:58:30.455Z,985.29
2017-02-23T06:59:30.482Z,985.29
2017-02-23T07:00:30.508Z,985.26
2017-02-23T07:01:30.532Z,985.24
2017-02-23T07:02:30.566Z,985.21
2017-02-23T07:03:30.591Z,985.24
2017-02-23T07:04:30.619Z,985.18
2017-02-23T07:05:30.644Z,985.15
2017-02-23T07:06:30.672Z,985.16
2017-02-23T07:07:30.701Z,985.11
2017-02-23T07:08:30.726Z,985.1
2017-02-23T07:09:30.755Z,985.08
2017-02-23T07:10:30.786Z,985.1
2017-02-23T07:11:30.809Z,985.08
2017-02-23T07:12:30.838Z,985.06
2017-02-23T07:13:30.865Z,985.06
2017-02-23T07:14:30.893Z,985.05
2017-02-23T07:15:30.919Z,985
2017-02-23T07:16:30.948Z,984.99
2017-02-23T07:17:30.976Z,985.01
2017-02-23T07:18:31.001Z,984.95
2017-02-23T07:19:31.029Z,984.94
2017-02-23T07:20:31.054Z,985.01
2017-02-23T07:21:31.084Z,984.98
2017-02-23T07:22:31.111Z,984.99
2017-02-23T07:23:31.137Z,984.93
2017-02-23T07:24:31.166Z,984.94
2017-02-23T07:25:31.190Z,984.96
2017-02-23T07:26:31.219Z,984.91
2017-02-23T07:27:31.276Z,984.87
2017-02-23T07:28:31.275Z,984.9
2017-02-23T07:29:31.305Z,984.9
2017-02-23T07:30:31.329Z,984.87
2017-02-23T07:31:31.354Z,984.87
2017-02-23T07:32:31.383Z,984.92
2017-02-23T07:33:31.412Z,984.9
2017-02-23T07:34:31.440Z,984.86
2017-02-23T07:35:31.465Z,984.79
2017-02-23T07:36:31.489Z,984.75
2017-02-23T07:37:31.522Z,984.75
2017-02-23T07:38:31.546Z,984.78
2017-02-23T07:39:31.576Z,984.8
2017-02-23T07:40:31.605Z,984.8
2017-02-23T07:41:31.625Z,984.79
2017-02-23T07:42:31.659Z,984.76
2017-02-23T07:43:31.687Z,984.81
2017-02-23T07:44:31.712Z,984.72
2017-02-23T07:45:31.741Z,984.71
2017-02-23T07:46:31.769Z,984.65
2017-02-23T07:47:31.799Z,984.68
2017-02-23T07:48:31.818Z,984.71
2017-02-23T07:49:31.850Z,984.74
2017-02-23T07:50:31.880Z,984.7
2017-02-23T07:51:31.905Z,984.72
2017-02-23T07:52:31.933Z,984.58
2017-02-23T07:53:31.962Z,984.58
2017-02-23T07:54:31.987Z,984.55
2017-02-23T07:55:32.016Z,984.56
2017-02-23T07:56:32.045Z,984.5
2017-02-23T07:57:32.066Z,984.56
2017-02-23T07:58:32.098Z,984.55
2017-02-23T07:59:32.128Z,984.54
2017-02-23T08:00:32.151Z,984.55
2017-02-23T08:01:32.183Z,984.51
2017-02-23T08:02:32.209Z,984.54
2017-02-23T08:03:32.233Z,984.49
2017-02-23T08:04:32.263Z,984.49
2017-02-23T08:05:32.292Z,984.5
2017-02-23T08:06:32.321Z,984.52
2017-02-23T08:07:32.343Z,984.49
2017-02-23T08:08:32.374Z,984.37
2017-02-23T08:09:32.402Z,984.39
2017-02-23T08:10:32.427Z,984.46
2017-02-23T08:11:32.456Z,984.44
2017-02-23T08:12:32.485Z,984.32
2017-02-23T08:13:32.514Z,984.35
2017-02-23T08:14:32.538Z,984.43
2017-02-23T08:15:32.814Z,984.36
2017-02-23T08:16:32.591Z,984.29
2017-02-23T08:17:32.625Z,984.3
2017-02-23T08:18:32.649Z,984.31
2017-02-23T08:19:32.678Z,984.31
2017-02-23T08:20:32.954Z,984.24
2017-02-23T08:21:32.732Z,984.1
2017-02-23T08:22:32.756Z,984.14
2017-02-23T08:23:32.785Z,984.16
2017-02-23T08:24:32.813Z,984.19
2017-02-23T08:25:33.091Z,984.08
2017-02-23T08:26:32.867Z,984.07
2017-02-23T08:27:32.898Z,984.01
2017-02-23T08:28:32.924Z,984.08
2017-02-23T08:29:32.949Z,983.96
2017-02-23T08:30:33.251Z,984.02
2017-02-23T08:31:33.007Z,983.98
2017-02-23T08:32:33.032Z,983.97
2017-02-23T08:33:33.061Z,983.97
2017-02-23T08:34:33.089Z,983.96
2017-02-23T08:35:33.395Z,984.03
2017-02-23T08:36:33.143Z,983.95
2017-02-23T08:37:33.170Z,983.95
2017-02-23T08:38:33.199Z,983.87
2017-02-23T08:39:33.225Z,983.88
2017-02-23T08:40:33.505Z,983.85
2017-02-23T08:41:33.283Z,983.83
2017-02-23T08:42:33.303Z,983.79
2017-02-23T08:43:33.331Z,983.83
2017-02-23T08:44:33.365Z,983.83
2017-02-23T08:45:33.637Z,983.91
2017-02-23T08:46:33.417Z,983.81
2017-02-23T08:47:33.447Z,983.78
2017-02-23T08:48:33.475Z,983.7
2017-02-23T08:49:33.501Z,983.68
2017-02-23T08:50:33.777Z,983.61
2017-02-23T08:51:33.551Z,983.64
2017-02-23T08:52:33.582Z,983.68
2017-02-23T08:53:33.610Z,983.69
2017-02-23T08:54:33.636Z,983.74
2017-02-23T08:55:33.912Z,983.69
2017-02-23T08:56:33.693Z,983.72
2017-02-23T08:57:33.718Z,983.73
2017-02-23T08:58:33.746Z,983.75
2017-02-23T08:59:33.775Z,983.75
2017-02-23T09:00:34.051Z,983.77
2017-02-23T09:01:33.829Z,983.74
2017-02-23T09:02:33.854Z,983.76
2017-02-23T09:03:33.886Z,983.75
2017-02-23T09:04:33.911Z,983.79
2017-02-23T09:05:34.191Z,983.76
2017-02-23T09:06:33.966Z,983.73
2017-02-23T09:07:33.993Z,983.75
2017-02-23T09:08:34.022Z,983.73
2017-02-23T09:09:34.046Z,983.69
2017-02-23T09:10:34.074Z,983.58
2017-02-23T09:11:34.104Z,983.66
2017-02-23T09:12:34.128Z,983.64
2017-02-23T09:13:34.157Z,983.59
2017-02-23T09:14:34.198Z,983.62
2017-02-23T09:15:34.219Z,983.61
2017-02-23T09:16:34.238Z,983.57
2017-02-23T09:17:34.268Z,983.6
2017-02-23T09:18:34.296Z,983.57
2017-02-23T09:19:34.321Z,983.61
2017-02-23T09:20:34.349Z,983.66
2017-02-23T09:21:34.370Z,983.54
2017-02-23T09:22:34.404Z,983.56
2017-02-23T09:23:34.432Z,983.53
2017-02-23T09:24:34.457Z,983.48
2017-02-23T09:25:34.485Z,983.43
2017-02-23T09:26:34.514Z,983.41
2017-02-23T09:27:34.539Z,983.4
2017-02-23T09:28:34.567Z,983.44
2017-02-23T09:29:34.595Z,983.44
2017-02-23T09:30:34.620Z,983.38
2017-02-23T09:31:34.649Z,983.46
2017-02-23T09:32:34.680Z,983.44
2017-02-23T09:33:34.703Z,983.28
2017-02-23T09:34:34.731Z,983.34
2017-02-23T09:35:34.760Z,983.37
2017-02-23T09:36:34.784Z,983.34
2017-02-23T09:37:34.813Z,983.31
2017-02-23T09:38:34.838Z,983.22
2017-02-23T09:39:34.870Z,983.28
2017-02-23T09:40:34.896Z,983.26
2017-02-23T09:41:34.921Z,983.34
2017-02-23T09:42:34.949Z,983.15
2017-02-23T09:43:34.979Z,983.23
2017-02-23T09:44:35.006Z,983.15
2017-02-23T09:45:35.031Z,983.26
2017-02-23T09:46:35.060Z,983.25
2017-02-23T09:47:35.085Z,983.16
2017-02-23T09:48:35.114Z,983.31
2017-02-23T09:49:35.142Z,983.24
2017-02-23T09:50:35.166Z,983.29
2017-02-23T09:51:35.196Z,983.19
2017-02-23T09:52:35.225Z,983.22
2017-02-23T09:53:35.248Z,983.21
2017-02-23T09:54:35.278Z,983.17
2017-02-23T09:55:35.309Z,983.17
2017-02-23T09:56:35.331Z,983.19
2017-02-23T09:57:35.360Z,983.17
2017-02-23T09:58:35.384Z,982.99
2017-02-23T09:59:35.413Z,982.93
2017-02-23T10:00:35.442Z,982.98
2017-02-23T10:01:35.469Z,983.04
2017-02-23T10:02:35.496Z,983.07
2017-02-23T10:03:35.525Z,983.02
2017-02-23T10:04:35.553Z,982.97
2017-02-23T10:05:35.578Z,982.92
2017-02-23T10:06:35.606Z,983.01
2017-02-23T10:07:35.635Z,982.9
2017-02-23T10:08:35.660Z,982.84
2017-02-23T10:09:35.688Z,982.97
2017-02-23T10:10:35.717Z,982.86
2017-02-23T10:11:35.742Z,983.01
2017-02-23T10:12:35.771Z,982.91
2017-02-23T10:13:35.800Z,982.95
2017-02-23T10:14:35.824Z,982.86
2017-02-23T10:15:35.853Z,982.84
2017-02-23T10:16:35.883Z,982.77
2017-02-23T10:17:35.911Z,982.84
2017-02-23T10:18:35.931Z,982.82
2017-02-23T10:19:35.964Z,982.84
2017-02-23T10:20:35.989Z,982.77
2017-02-23T10:21:36.016Z,982.68
2017-02-23T10:22:36.046Z,982.78
2017-02-23T10:23:36.074Z,982.86
2017-02-23T10:24:36.100Z,982.81
2017-02-23T10:25:36.128Z,982.83
2017-02-23T10:26:36.158Z,982.71
2017-02-23T10:27:36.181Z,982.83
2017-02-23T10:28:36.214Z,982.73
2017-02-23T10:29:36.239Z,982.65
2017-02-23T10:30:36.264Z,982.56
2017-02-23T10:31:36.293Z,982.53
2017-02-23T10:32:36.317Z,982.6
2017-02-23T10:33:36.348Z,982.51
2017-02-23T10:34:36.375Z,982.58
2017-02-23T10:35:36.404Z,982.54
2017-02-23T10:36:36.432Z,982.5
2017-02-23T10:37:36.457Z,982.42
2017-02-23T10:38:36.484Z,982.41
2017-02-23T10:39:36.514Z,982.3
2017-02-23T10:40:36.539Z,982.4
2017-02-23T10:41:36.820Z,982.36
2017-02-23T10:42:36.594Z,982.54
2017-02-23T10:43:36.622Z,982.4
2017-02-23T10:44:36.650Z,982.24
2017-02-23T10:45:36.678Z,982.37
2017-02-23T10:46:36.954Z,982.32
2017-02-23T10:47:36.732Z,982.35
2017-02-23T10:48:36.757Z,982.38
2017-02-23T10:49:36.785Z,982.29
2017-02-23T10:50:36.819Z,982.33
2017-02-23T10:51:37.092Z,982.12
2017-02-23T10:52:36.871Z,982.15
2017-02-23T10:53:36.901Z,982.21
2017-02-23T10:54:36.921Z,982.06
2017-02-23T10:55:36.955Z,982.02
2017-02-23T10:56:37.231Z,982.07
2017-02-23T10:57:37.007Z,982.01
2017-02-23T10:58:37.036Z,981.9
2017-02-23T10:59:37.065Z,981.92
2017-02-23T11:00:37.092Z,981.81
2017-02-23T11:01:37.118Z,981.75
2017-02-23T11:02:37.146Z,981.69
2017-02-23T11:03:37.172Z,981.64
2017-02-23T11:04:37.200Z,981.58
2017-02-23T11:05:37.230Z,981.53
2017-02-23T11:06:37.257Z,981.57
2017-02-23T11:07:37.286Z,981.5
2017-02-23T11:08:37.311Z,981.42
2017-02-23T11:09:37.340Z,981.42
2017-02-23T11:10:37.369Z,981.56
2017-02-23T11:11:37.390Z,981.45
2017-02-23T11:12:37.421Z,981.42
2017-02-23T11:13:37.451Z,981.47
2017-02-23T11:14:37.475Z,981.46
2017-02-23T11:15:37.505Z,981.51
2017-02-23T11:16:37.533Z,981.44
2017-02-23T11:17:37.561Z,981.5
2017-02-23T11:18:37.591Z,981.44
2017-02-23T11:19:37.615Z,981.52
2017-02-23T11:20:37.645Z,981.47
2017-02-23T11:21:37.673Z,981.46
2017-02-23T11:22:37.700Z,981.46
2017-02-23T11:23:37.731Z,981.38
2017-02-23T11:24:37.756Z,981.36
2017-02-23T11:25:37.784Z,981.43
2017-02-23T11:26:37.812Z,981.32
2017-02-23T11:27:37.838Z,981.44
2017-02-23T11:28:37.862Z,981.39
2017-02-23T11:29:37.895Z,981.51
2017-02-23T11:30:37.924Z,981.54
2017-02-23T11:31:37.957Z,981.55
2017-02-23T11:32:37.976Z,981.58
2017-02-23T11:33:38.002Z,981.55
2017-02-23T11:34:38.035Z,981.69
2017-02-23T11:35:38.063Z,981.63
2017-02-23T11:36:38.087Z,981.57
2017-02-23T11:37:38.116Z,981.5
2017-02-23T11:38:38.146Z,981.47
2017-02-23T11:39:38.174Z,981.33
2017-02-23T11:40:38.203Z,981.5
2017-02-23T11:41:38.227Z,981.45
2017-02-23T11:42:38.256Z,981.45
2017-02-23T11:43:38.285Z,981.36
2017-02-23T11:44:38.325Z,981.26
2017-02-23T11:45:38.338Z,981.38
2017-02-23T11:46:38.367Z,981.49
2017-02-23T11:47:38.395Z,981.26
2017-02-23T11:48:38.420Z,981.18
2017-02-23T11:49:38.453Z,981.34
2017-02-23T11:50:38.478Z,981.12
2017-02-23T11:51:38.505Z,981.21
2017-02-23T11:52:38.536Z,981.08
2017-02-23T11:53:38.560Z,981.09
2017-02-23T11:54:38.593Z,981.09
2017-02-23T11:55:38.617Z,980.97
2017-02-23T11:56:38.646Z,980.92
2017-02-23T11:57:38.675Z,980.94
2017-02-23T11:58:38.703Z,980.76
2017-02-23T11:59:38.731Z,980.78
2017-02-23T12:00:38.759Z,980.78
2017-02-23T12:01:38.793Z,980.9
2017-02-23T12:02:38.815Z,980.82
2017-02-23T12:03:38.843Z,980.79
2017-02-23T12:04:38.875Z,980.76
2017-02-23T12:05:38.900Z,980.74
2017-02-23T12:06:38.931Z,980.79
2017-02-23T12:07:38.954Z,980.75
2017-02-23T12:08:38.982Z,980.74
2017-02-23T12:09:39.011Z,980.73
2017-02-23T12:10:39.039Z,980.66
2017-02-23T12:11:39.067Z,980.56
2017-02-23T12:12:39.096Z,980.59
2017-02-23T12:13:39.121Z,980.64
2017-02-23T12:14:39.145Z,980.67
2017-02-23T12:15:39.180Z,980.7
2017-02-23T12:16:39.209Z,980.57
2017-02-23T12:17:39.238Z,980.45
2017-02-23T12:18:39.266Z,980.6
2017-02-23T12:19:39.290Z,980.52
2017-02-23T12:20:39.319Z,980.5
2017-02-23T12:21:39.348Z,980.34
2017-02-23T12:22:39.373Z,980.34
2017-02-23T12:23:39.405Z,980.37
2017-02-23T12:24:39.434Z,980.38
2017-02-23T12:25:39.462Z,980.29
2017-02-23T12:26:39.487Z,980.21
2017-02-23T12:27:39.512Z,980.27
2017-02-23T12:28:39.544Z,980.36
2017-02-23T12:29:39.573Z,980.37
2017-02-23T12:30:39.598Z,980.35